createdAt,value
2018-12-17T00:00:32.056Z,0.50
2018-12-17T00:03:00.527Z,0.50
2018-12-17T00:05:30.552Z,0.50
2018-12-17T00:07:59.169Z,0.50
2018-12-17T00:10:27.618Z,0.50
2018-12-17T00:12:56.113Z,0.50
2018-12-17T00:15:24.697Z,0.50
2018-12-17T00:17:53.166Z,0.50
2018-12-17T00:20:21.633Z,0.50
2018-12-17T00:22:50.085Z,0.60
2018-12-17T00:25:18.542Z,0.50
2018-12-17T00:27:47.002Z,0.50
2018-12-17T00:30:15.502Z,0.50
2018-12-17T00:32:43.974Z,0.50
2018-12-17T00:35:12.452Z,0.60
2018-12-17T00:37:40.915Z,0.50
2018-12-17T00:40:10.262Z,0.60
2018-12-17T00:42:38.717Z,0.70
2018-12-17T00:45:08.190Z,0.60
2018-12-17T00:47:36.654Z,0.60
2018-12-17T00:50:06.469Z,0.60
2018-12-17T00:52:34.918Z,0.60
2018-12-17T00:55:03.485Z,0.60
2018-12-17T00:57:31.955Z,0.60
2018-12-17T01:00:00.401Z,0.60
2018-12-17T01:02:28.875Z,0.60
2018-12-17T01:04:57.360Z,0.60
2018-12-17T01:07:31.349Z,0.60
2018-12-17T01:09:59.834Z,0.60
2018-12-17T01:12:28.293Z,0.50
2018-12-17T01:14:56.742Z,0.50
2018-12-17T01:17:25.215Z,0.50
2018-12-17T01:19:53.818Z,0.40
2018-12-17T01:22:22.278Z,0.40
2018-12-17T01:24:50.792Z,0.50
2018-12-17T01:27:19.250Z,0.40
2018-12-17T01:29:47.714Z,0.40
2018-12-17T01:32:16.170Z,0.30
2018-12-17T01:34:44.625Z,0.20
2018-12-17T01:37:13.669Z,0.10
2018-12-17T01:39:42.123Z,0.10
2018-12-17T01:42:10.582Z,0.10
2018-12-17T01:44:39.033Z,0.10
2018-12-17T01:47:07.486Z,0.10
2018-12-17T01:49:35.938Z,0.20
2018-12-17T01:52:04.416Z,0.20
2018-12-17T01:54:32.878Z,0.20
2018-12-17T01:57:01.339Z,0.20
2018-12-17T01:59:29.813Z,0.20
2018-12-17T02:01:58.274Z,0.20
2018-12-17T02:04:26.737Z,0.20
2018-12-17T02:06:55.200Z,0.20
2018-12-17T02:09:23.678Z,0.20
2018-12-17T02:11:52.177Z,0.10
2018-12-17T02:14:20.671Z,0.10
2018-12-17T02:16:49.146Z,0.10
2018-12-17T02:19:17.801Z,0.10
2018-12-17T02:21:46.277Z,0.00
2018-12-17T02:24:14.741Z,0.00
2018-12-17T02:26:43.206Z,0.00
2018-12-17T02:29:11.665Z,0.00
2018-12-17T02:31:40.143Z,-0.10
2018-12-17T02:34:08.609Z,0.00
2018-12-17T02:36:37.062Z,0.00
2018-12-17T02:41:34.462Z,0.10
2018-12-17T02:44:02.934Z,0.20
2018-12-17T02:46:31.386Z,0.20
2018-12-17T02:48:59.841Z,0.20
2018-12-17T02:51:28.295Z,0.30
2018-12-17T02:53:57.193Z,0.20
2018-12-17T02:56:25.690Z,0.20
2018-12-17T02:58:54.141Z,0.20
2018-12-17T03:01:22.597Z,0.10
2018-12-17T03:03:51.179Z,0.10
2018-12-17T03:06:19.633Z,0.00
2018-12-17T03:08:48.115Z,-0.10
2018-12-17T03:11:16.591Z,-0.20
2018-12-17T03:13:45.043Z,-0.30
2018-12-17T03:16:13.510Z,-0.40
2018-12-17T03:18:41.987Z,-0.30
2018-12-17T03:21:10.454Z,-0.40
2018-12-17T03:23:38.909Z,-0.40
2018-12-17T03:26:07.377Z,-0.50
2018-12-17T03:28:35.838Z,-0.50
2018-12-17T03:31:04.316Z,-0.60
2018-12-17T03:33:32.762Z,-0.50
2018-12-17T03:36:01.218Z,-0.50
2018-12-17T03:38:29.674Z,-0.50
2018-12-17T03:40:58.149Z,-0.40
2018-12-17T03:43:26.648Z,-0.40
2018-12-17T03:45:55.113Z,-0.50
2018-12-17T03:48:23.574Z,-0.60
2018-12-17T03:50:52.037Z,-0.60
2018-12-17T03:53:20.493Z,-0.70
2018-12-17T03:55:49.070Z,-0.70
2018-12-17T03:58:17.530Z,-0.70
2018-12-17T04:00:46.014Z,-0.70
2018-12-17T04:03:14.474Z,-0.70
2018-12-17T04:05:42.951Z,-0.70
2018-12-17T04:08:11.408Z,-0.80
2018-12-17T04:10:39.983Z,-0.90
2018-12-17T04:13:08.866Z,-0.90
2018-12-17T04:15:37.757Z,-0.90
2018-12-17T04:18:06.209Z,-0.90
2018-12-17T04:20:34.679Z,-0.80
2018-12-17T04:23:03.150Z,-0.90
2018-12-17T04:25:31.620Z,-0.70
2018-12-17T04:28:00.070Z,-0.80
2018-12-17T04:30:28.637Z,-0.90
2018-12-17T04:32:57.098Z,-1.00
2018-12-17T04:35:25.629Z,-1.00
2018-12-17T04:37:54.196Z,-1.10
2018-12-17T04:40:22.657Z,-1.20
2018-12-17T04:42:51.111Z,-1.20
2018-12-17T04:45:19.581Z,-1.30
2018-12-17T04:47:48.037Z,-1.30
2018-12-17T04:50:16.502Z,-1.30
2018-12-17T04:52:44.973Z,-1.20
2018-12-17T04:55:13.480Z,-1.00
2018-12-17T04:57:42.086Z,-1.00
2018-12-17T05:00:10.732Z,-0.90
2018-12-17T05:02:39.198Z,-0.90
2018-12-17T05:05:07.828Z,-0.90
2018-12-17T05:07:36.289Z,-0.90
2018-12-17T05:10:06.143Z,-1.00
2018-12-17T05:12:34.612Z,-1.00
2018-12-17T05:15:03.847Z,-1.00
2018-12-17T05:17:32.945Z,-1.00
2018-12-17T05:20:01.423Z,-1.00
2018-12-17T05:22:29.886Z,-1.10
2018-12-17T05:24:58.511Z,-1.20
2018-12-17T05:27:26.995Z,-1.20
2018-12-17T05:29:55.462Z,-1.20
2018-12-17T05:32:24.062Z,-1.30
2018-12-17T05:34:52.530Z,-1.40
2018-12-17T05:37:20.994Z,-1.50
2018-12-17T05:39:49.456Z,-1.40
2018-12-17T05:42:18.126Z,-1.40
2018-12-17T05:44:46.808Z,-1.40
2018-12-17T05:47:15.290Z,-1.50
2018-12-17T05:49:43.744Z,-1.50
2018-12-17T05:52:12.221Z,-1.50
2018-12-17T05:54:40.677Z,-1.50
2018-12-17T05:57:09.154Z,-1.40
2018-12-17T05:59:37.629Z,-1.50
2018-12-17T06:02:06.097Z,-1.50
2018-12-17T06:04:34.588Z,-1.40
2018-12-17T06:07:03.086Z,-1.50
2018-12-17T06:09:31.897Z,-1.60
2018-12-17T06:12:00.357Z,-1.70
2018-12-17T06:14:28.813Z,-1.80
2018-12-17T06:16:57.278Z,-1.90
2018-12-17T06:19:25.788Z,-1.90
2018-12-17T06:21:54.245Z,-1.90
2018-12-17T06:24:22.701Z,-2.00
2018-12-17T06:26:51.171Z,-2.00
2018-12-17T06:29:19.746Z,-2.00
2018-12-17T06:31:48.214Z,-2.00
2018-12-17T06:34:16.679Z,-1.90
2018-12-17T06:36:45.142Z,-1.90
2018-12-17T06:39:14.816Z,-1.70
2018-12-17T06:41:43.486Z,-1.70
2018-12-17T06:44:11.952Z,-1.70
2018-12-17T06:46:40.402Z,-1.60
2018-12-17T06:49:08.868Z,-1.50
2018-12-17T06:51:37.349Z,-1.50
2018-12-17T06:54:06.217Z,-1.40
2018-12-17T06:56:34.685Z,-1.30
2018-12-17T06:59:03.166Z,-1.30
2018-12-17T07:01:32.357Z,-1.20
2018-12-17T07:04:00.819Z,-1.10
2018-12-17T07:06:29.290Z,-1.10
2018-12-17T07:08:57.770Z,-1.10
2018-12-17T07:11:26.222Z,-1.10
2018-12-17T07:13:54.694Z,-1.10
2018-12-17T07:16:23.158Z,-1.00
2018-12-17T07:18:51.625Z,-1.10
2018-12-17T07:21:20.078Z,-1.10
2018-12-17T07:23:48.533Z,-1.10
2018-12-17T07:26:17.138Z,-1.00
2018-12-17T07:28:46.129Z,-0.90
2018-12-17T07:31:14.606Z,-0.90
2018-12-17T07:33:43.069Z,-0.80
2018-12-17T07:36:11.545Z,-0.80
2018-12-17T07:38:40.019Z,-0.80
2018-12-17T07:41:08.472Z,-0.80
2018-12-17T07:43:37.966Z,-0.80
2018-12-17T07:46:06.558Z,-0.80
2018-12-17T07:48:35.022Z,-0.70
2018-12-17T07:51:03.487Z,-0.70
2018-12-17T07:53:32.224Z,-0.70
2018-12-17T07:56:00.685Z,-0.80
2018-12-17T07:58:29.155Z,-0.70
2018-12-17T08:00:57.614Z,-0.70
2018-12-17T08:03:26.086Z,-0.60
2018-12-17T08:05:54.546Z,-0.50
2018-12-17T08:08:22.998Z,-0.60
2018-12-17T08:10:51.485Z,-0.60
2018-12-17T08:13:20.587Z,-0.60
2018-12-17T08:15:49.074Z,-0.60
2018-12-17T08:18:22.630Z,-0.50
2018-12-17T08:20:51.730Z,-0.50
2018-12-17T08:23:20.290Z,-0.50
2018-12-17T08:25:48.752Z,-0.40
2018-12-17T08:28:17.250Z,-0.20
2018-12-17T08:30:45.846Z,-0.10
2018-12-17T08:33:14.926Z,-0.10
2018-12-17T08:35:43.388Z,0.00
2018-12-17T08:38:11.861Z,0.10
2018-12-17T08:40:40.449Z,0.20
2018-12-17T08:43:08.922Z,0.20
2018-12-17T08:45:37.875Z,0.30
2018-12-17T08:48:06.346Z,0.40
2018-12-17T08:50:34.825Z,0.40
2018-12-17T08:53:03.298Z,0.50
2018-12-17T08:55:31.868Z,0.60
2018-12-17T08:58:00.347Z,0.60
2018-12-17T09:00:28.798Z,0.50
2018-12-17T09:02:57.268Z,0.60
2018-12-17T09:05:25.736Z,0.60
2018-12-17T09:07:54.225Z,0.60
2018-12-17T09:10:22.687Z,0.70
2018-12-17T09:12:51.161Z,0.70
2018-12-17T09:15:19.624Z,0.70
2018-12-17T09:19:17.681Z,0.60
2018-12-17T09:21:46.149Z,0.50
2018-12-17T09:24:14.614Z,0.40
2018-12-17T09:26:43.110Z,0.50
2018-12-17T09:29:11.574Z,0.40
2018-12-17T09:31:40.038Z,0.40
2018-12-17T09:34:08.518Z,0.40
2018-12-17T09:36:36.979Z,0.40
2018-12-17T09:39:08.137Z,0.50
2018-12-17T09:41:36.745Z,0.50
2018-12-17T09:44:05.730Z,0.50
2018-12-17T09:46:34.354Z,0.50
2018-12-17T09:49:02.837Z,0.60
2018-12-17T09:51:31.318Z,0.50
2018-12-17T09:53:59.780Z,0.40
2018-12-17T09:56:28.239Z,0.50
2018-12-17T09:58:56.693Z,0.50
2018-12-17T10:01:25.142Z,0.40
2018-12-17T10:03:53.586Z,0.50
2018-12-17T10:06:22.105Z,0.40
2018-12-17T10:08:50.626Z,0.40
2018-12-17T10:11:19.077Z,0.40
2018-12-17T10:13:47.569Z,0.30
2018-12-17T10:16:16.021Z,0.30
2018-12-17T10:18:44.481Z,0.40
2018-12-17T10:21:12.937Z,0.40
2018-12-17T10:23:41.518Z,0.40
2018-12-17T10:26:09.990Z,0.50
2018-12-17T10:28:38.441Z,0.50
2018-12-17T10:31:06.926Z,0.50
2018-12-17T10:33:35.565Z,0.50
2018-12-17T10:36:04.042Z,0.60
2018-12-17T10:38:32.509Z,0.60
2018-12-17T10:41:00.973Z,0.50
2018-12-17T10:43:29.428Z,0.60
2018-12-17T10:45:58.161Z,0.50
2018-12-17T10:48:26.627Z,0.50
2018-12-17T10:50:55.078Z,0.60
2018-12-17T10:53:23.554Z,0.60
2018-12-17T10:55:52.021Z,0.60
2018-12-17T10:58:20.479Z,0.40
2018-12-17T11:00:54.086Z,0.40
2018-12-17T11:03:26.754Z,0.50
2018-12-17T11:05:56.962Z,0.40
2018-12-17T11:08:25.411Z,0.50
2018-12-17T11:10:54.003Z,0.50
2018-12-17T11:13:22.450Z,0.50
2018-12-17T11:15:51.046Z,0.50
2018-12-17T11:18:19.498Z,0.50
2018-12-17T11:20:47.983Z,0.50
2018-12-17T11:23:16.454Z,0.50
2018-12-17T11:25:44.925Z,0.50
2018-12-17T11:28:13.377Z,0.60
2018-12-17T11:30:46.447Z,0.50
2018-12-17T11:33:12.313Z,0.40
2018-12-17T11:35:41.373Z,0.50
2018-12-17T11:38:09.999Z,0.50
2018-12-17T11:40:38.473Z,0.50
2018-12-17T11:43:06.922Z,0.50
2018-12-17T11:45:35.902Z,0.50
2018-12-17T11:48:04.364Z,0.40
2018-12-17T11:50:32.825Z,0.40
2018-12-17T11:53:01.289Z,0.40
2018-12-17T11:55:29.749Z,0.30
2018-12-17T11:58:16.121Z,0.30
2018-12-17T12:00:53.993Z,0.40
2018-12-17T12:03:21.466Z,0.40
2018-12-17T12:05:49.934Z,0.40
2018-12-17T12:08:18.395Z,0.50
2018-12-17T12:10:46.850Z,0.50
2018-12-17T12:13:15.297Z,0.50
2018-12-17T12:15:43.758Z,0.50
2018-12-17T12:18:12.210Z,0.50
2018-12-17T12:20:40.978Z,0.40
2018-12-17T12:23:09.442Z,0.50
2018-12-17T12:25:37.905Z,0.40
2018-12-17T12:28:06.361Z,0.50
2018-12-17T12:30:34.836Z,0.40
2018-12-17T12:33:03.565Z,0.40
2018-12-17T12:35:32.029Z,0.50
2018-12-17T12:38:00.482Z,0.40
2018-12-17T12:40:28.933Z,0.30
2018-12-17T12:42:57.385Z,0.40
2018-12-17T12:45:25.844Z,0.40
2018-12-17T12:47:54.453Z,0.30
2018-12-17T12:50:22.913Z,0.30
2018-12-17T12:52:51.508Z,0.40
2018-12-17T12:55:20.015Z,0.30
2018-12-17T12:57:48.476Z,0.30
2018-12-17T13:00:17.073Z,0.20
2018-12-17T13:02:45.523Z,0.10
2018-12-17T13:05:14.001Z,0.00
2018-12-17T13:07:42.454Z,-0.10
2018-12-17T13:10:13.249Z,-0.10
2018-12-17T13:12:41.870Z,-0.30
2018-12-17T13:15:10.721Z,-0.30
2018-12-17T13:17:39.190Z,-0.40
2018-12-17T13:20:09.302Z,-0.40
2018-12-17T13:22:37.899Z,-0.40
2018-12-17T13:25:09.113Z,-0.50
2018-12-17T13:27:37.587Z,-0.50
2018-12-17T13:30:08.551Z,-0.60
2018-12-17T13:32:37.072Z,-0.70
2018-12-17T13:35:06.698Z,-0.50
2018-12-17T13:37:35.165Z,-0.50
2018-12-17T13:40:04.358Z,-0.50
2018-12-17T13:42:32.828Z,-0.50
2018-12-17T13:45:01.925Z,-0.60
2018-12-17T13:47:30.373Z,-0.60
2018-12-17T13:50:03.194Z,-0.50
2018-12-17T13:52:36.796Z,-0.50
2018-12-17T13:55:05.794Z,-0.40
2018-12-17T13:57:34.270Z,-0.40
2018-12-17T14:00:02.738Z,-0.20
2018-12-17T14:02:31.202Z,-0.20
2018-12-17T14:04:59.669Z,-0.20
2018-12-17T14:07:28.122Z,-0.20
2018-12-17T14:10:01.772Z,-0.30
2018-12-17T14:12:30.355Z,-0.30
2018-12-17T14:14:58.810Z,-0.40
2018-12-17T14:17:32.628Z,-0.40
2018-12-17T14:20:06.526Z,-0.50
2018-12-17T14:22:35.010Z,-0.60
2018-12-17T14:25:03.648Z,-0.70
2018-12-17T14:27:32.182Z,-0.90
2018-12-17T14:30:00.651Z,-1.10
2018-12-17T14:32:29.146Z,-0.90
2018-12-17T14:34:57.622Z,-0.70
2018-12-17T14:37:26.094Z,-0.70
2018-12-17T14:39:54.551Z,-0.60
2018-12-17T14:42:23.026Z,-0.60
2018-12-17T14:44:52.016Z,-0.50
2018-12-17T14:47:20.473Z,-0.50
2018-12-17T14:49:48.939Z,-0.40
2018-12-17T14:52:17.460Z,-0.30
2018-12-17T14:54:45.998Z,-0.30
2018-12-17T14:57:15.185Z,-0.30
2018-12-17T14:59:43.714Z,-0.20
2018-12-17T15:02:12.990Z,-0.30
2018-12-17T15:04:41.461Z,-0.20
2018-12-17T15:07:09.930Z,-0.30
2018-12-17T15:09:38.410Z,-0.30
2018-12-17T15:12:06.886Z,-0.30
2018-12-17T15:14:35.825Z,-0.30
2018-12-17T15:17:04.314Z,-0.30
2018-12-17T15:19:32.778Z,-0.20
2018-12-17T15:22:01.242Z,-0.30
2018-12-17T15:24:29.726Z,-0.20
2018-12-17T15:26:58.288Z,-0.40
2018-12-17T15:29:26.770Z,-0.30
2018-12-17T15:31:55.339Z,-0.20
2018-12-17T15:34:23.809Z,-0.30
2018-12-17T15:36:52.271Z,-0.30
2018-12-17T15:39:20.858Z,-0.20
2018-12-17T15:41:49.325Z,-0.30
2018-12-17T15:44:17.762Z,-0.30
2018-12-17T15:46:46.213Z,-0.40
2018-12-17T15:49:14.887Z,-0.30
2018-12-17T15:51:43.354Z,-0.20
2018-12-17T15:54:11.822Z,-0.20
2018-12-17T15:56:40.274Z,-0.30
2018-12-17T15:59:09.475Z,-0.40
2018-12-17T16:01:37.966Z,-0.30
2018-12-17T16:04:06.426Z,-0.40
2018-12-17T16:06:34.906Z,-0.30
2018-12-17T16:09:04.106Z,-0.20
2018-12-17T16:11:32.594Z,-0.30
2018-12-17T16:14:01.070Z,-0.30
2018-12-17T16:16:29.525Z,-0.20
2018-12-17T16:18:58.145Z,-0.10
2018-12-17T16:21:26.613Z,0.30
2018-12-17T16:23:55.088Z,0.30
2018-12-17T16:26:23.574Z,0.40
2018-12-17T16:28:52.037Z,0.30
2018-12-17T16:31:20.498Z,0.20
2018-12-17T16:33:48.966Z,0.40
2018-12-17T16:36:17.718Z,0.20
2018-12-17T16:38:46.179Z,0.00
2018-12-17T16:41:14.917Z,0.30
2018-12-17T16:43:43.370Z,0.20
2018-12-17T16:46:11.850Z,0.20
2018-12-17T16:48:40.342Z,0.10
2018-12-17T16:51:08.823Z,0.10
2018-12-17T16:53:37.506Z,0.00
2018-12-17T16:56:05.961Z,0.00
2018-12-17T16:58:34.426Z,0.00
2018-12-17T17:01:02.885Z,0.00
2018-12-17T17:03:31.351Z,0.00
2018-12-17T17:05:59.819Z,-0.10
2018-12-17T17:08:28.412Z,0.00
2018-12-17T17:10:56.901Z,0.00
2018-12-17T17:13:26.325Z,0.00
2018-12-17T17:15:54.797Z,0.00
2018-12-17T17:18:23.281Z,0.00
2018-12-17T17:20:51.755Z,0.00
2018-12-17T17:23:20.243Z,0.00
2018-12-17T17:25:48.723Z,0.00
2018-12-17T17:28:18.135Z,0.00
2018-12-17T17:30:46.611Z,-0.10
2018-12-17T17:33:15.078Z,-0.10
2018-12-17T17:35:43.558Z,-0.20
2018-12-17T17:38:12.026Z,-0.20
2018-12-17T17:40:40.507Z,-0.10
2018-12-17T17:43:08.966Z,0.00
2018-12-17T17:45:37.413Z,0.00
2018-12-17T17:48:05.910Z,-0.10
2018-12-17T17:50:34.418Z,0.00
2018-12-17T17:53:02.885Z,0.00
2018-12-17T17:55:31.367Z,-0.10
2018-12-17T17:57:59.822Z,0.00
2018-12-17T18:00:28.294Z,0.00
2018-12-17T18:02:56.746Z,0.00
2018-12-17T18:05:25.227Z,0.00
2018-12-17T18:07:53.717Z,0.10
2018-12-17T18:10:22.714Z,0.00
2018-12-17T18:12:51.177Z,0.10
2018-12-17T18:15:19.653Z,0.20
2018-12-17T18:17:48.120Z,0.30
2018-12-17T18:20:16.566Z,0.30
2018-12-17T18:22:45.025Z,0.30
2018-12-17T18:25:13.504Z,0.30
2018-12-17T18:27:41.976Z,0.30
2018-12-17T18:30:10.701Z,0.20
2018-12-17T18:32:39.157Z,0.20
2018-12-17T18:35:07.793Z,0.30
2018-12-17T18:37:36.262Z,0.30
2018-12-17T18:40:05.416Z,0.20
2018-12-17T18:42:33.882Z,0.20
2018-12-17T18:45:02.344Z,0.30
2018-12-17T18:47:30.802Z,0.30
2018-12-17T18:49:59.266Z,0.30
2018-12-17T18:52:27.713Z,0.40
2018-12-17T18:54:56.157Z,0.40
2018-12-17T18:57:24.614Z,0.40
2018-12-17T18:59:53.087Z,0.40
2018-12-17T19:02:21.554Z,0.40
2018-12-17T19:04:50.001Z,0.30
2018-12-17T19:07:18.466Z,0.30
2018-12-17T19:09:47.040Z,0.40
2018-12-17T19:12:15.491Z,0.40
2018-12-17T19:14:43.961Z,0.40
2018-12-17T19:17:12.425Z,0.40
2018-12-17T19:19:40.882Z,0.40
2018-12-17T19:22:09.338Z,0.40
2018-12-17T19:24:37.801Z,0.40
2018-12-17T19:27:06.273Z,0.40
2018-12-17T19:29:34.726Z,0.40
2018-12-17T19:32:03.188Z,0.30
2018-12-17T19:34:31.691Z,0.40
2018-12-17T19:37:00.177Z,0.40
2018-12-17T19:39:28.633Z,0.40
2018-12-17T19:41:57.078Z,0.30
2018-12-17T19:44:25.530Z,0.30
2018-12-17T19:46:53.987Z,0.30
2018-12-17T19:49:22.494Z,0.40
2018-12-17T19:51:50.971Z,0.40
2018-12-17T19:54:19.470Z,0.40
2018-12-17T19:56:47.937Z,0.50
2018-12-17T19:59:16.399Z,0.40
2018-12-17T20:01:44.879Z,0.40
2018-12-17T20:04:13.334Z,0.40
2018-12-17T20:06:41.841Z,0.40
2018-12-17T20:09:10.318Z,0.30
2018-12-17T20:11:38.783Z,0.30
2018-12-17T20:14:07.238Z,0.30
2018-12-17T20:16:35.686Z,0.30
2018-12-17T20:19:04.162Z,0.20
2018-12-17T20:21:32.614Z,0.30
2018-12-17T20:24:01.064Z,0.30
2018-12-17T20:26:29.553Z,0.30
2018-12-17T20:28:58.078Z,0.30
2018-12-17T20:31:26.613Z,0.30
2018-12-17T20:33:55.077Z,0.30
2018-12-17T20:36:23.538Z,0.30
2018-12-17T20:38:52.007Z,0.40
2018-12-17T20:41:20.491Z,0.30
2018-12-17T20:43:48.937Z,0.20
2018-12-17T20:46:17.392Z,0.20
2018-12-17T20:48:45.837Z,0.20
2018-12-17T20:51:14.361Z,0.30
2018-12-17T20:53:42.816Z,0.30
2018-12-17T20:56:11.282Z,0.30
2018-12-17T20:58:39.733Z,0.30
2018-12-17T21:01:08.194Z,0.30
2018-12-17T21:03:36.678Z,0.30
2018-12-17T21:06:05.135Z,0.30
2018-12-17T21:08:33.676Z,0.40
2018-12-17T21:11:02.126Z,0.40
2018-12-17T21:13:30.590Z,0.30
2018-12-17T21:15:59.176Z,0.30
2018-12-17T21:18:27.626Z,0.30
2018-12-17T21:20:56.078Z,0.40
2018-12-17T21:23:24.759Z,0.30
2018-12-17T21:25:53.330Z,0.40
2018-12-17T21:28:21.779Z,0.30
2018-12-17T21:30:50.242Z,0.40
2018-12-17T21:33:18.703Z,0.40
2018-12-17T21:35:47.143Z,0.30
2018-12-17T21:38:15.598Z,0.30
2018-12-17T21:40:44.054Z,0.30
2018-12-17T21:43:12.611Z,0.30
2018-12-17T21:45:41.193Z,0.30
2018-12-17T21:48:09.625Z,0.30
2018-12-17T21:50:38.073Z,0.30
2018-12-17T21:53:06.827Z,0.30
2018-12-17T21:55:35.270Z,0.30
2018-12-17T21:58:03.842Z,0.30
2018-12-17T22:00:32.329Z,0.30
2018-12-17T22:03:00.782Z,0.30
2018-12-17T22:05:29.241Z,0.30
2018-12-17T22:07:57.692Z,0.30
2018-12-17T22:10:28.589Z,0.40
2018-12-17T22:12:57.091Z,0.30
2018-12-17T22:15:25.545Z,0.40
2018-12-17T22:17:53.994Z,0.30
2018-12-17T22:20:22.446Z,0.30
2018-12-17T22:22:51.014Z,0.30
2018-12-17T22:25:19.477Z,0.30
2018-12-17T22:27:47.925Z,0.30
2018-12-17T22:30:16.506Z,0.20
2018-12-17T22:32:44.963Z,0.30
2018-12-17T22:35:13.410Z,0.30
2018-12-17T22:37:41.866Z,0.30
2018-12-17T22:40:10.462Z,0.40
2018-12-17T22:42:38.907Z,0.40
2018-12-17T22:45:07.620Z,0.50
2018-12-17T22:47:36.064Z,0.40
2018-12-17T22:50:05.361Z,0.50
2018-12-17T22:52:33.835Z,0.40
2018-12-17T22:55:02.294Z,0.40
2018-12-17T22:57:30.753Z,0.30
2018-12-17T22:59:59.213Z,0.40
2018-12-17T23:02:27.662Z,0.50
2018-12-17T23:04:56.121Z,0.50
2018-12-17T23:07:25.702Z,0.50
2018-12-17T23:10:05.369Z,0.50
2018-12-17T23:12:44.937Z,0.40
2018-12-17T23:15:24.399Z,0.50
2018-12-17T23:17:51.808Z,0.60
2018-12-17T23:20:20.522Z,0.50
2018-12-17T23:22:49.333Z,0.50
2018-12-17T23:25:17.789Z,0.40
2018-12-17T23:27:49.739Z,0.40
2018-12-17T23:30:20.289Z,0.40
2018-12-17T23:32:48.756Z,0.50
2018-12-17T23:35:17.359Z,0.50
2018-12-17T23:37:45.819Z,0.40
2018-12-17T23:40:14.285Z,0.50
2018-12-17T23:42:42.726Z,0.40
2018-12-17T23:45:11.334Z,0.40
2018-12-17T23:47:39.766Z,0.40
2018-12-17T23:50:08.259Z,0.50
2018-12-17T23:52:36.705Z,0.50
2018-12-17T23:55:05.406Z,0.50
2018-12-17T23:57:33.871Z,0.60
